Time;durP1;ratioP1;P1;durP2;ratioP2;P2;SDS_P1;SDS_P2;PMS_P1;PMS_P2;Temp;Humidity;BMP_temperature;BMP_pressure;BME280_temperature;BME280_humidity;BME280_pressure;Samples;Min_cycle;Max_cycle;Signal;HPM_P1;HPM_P2
2023/07/09 00:00:48;;;;;;;5.90;2.73;;;;;;;20.62;100.00;101647.22;2081436;28;20653;-64
2023/07/09 00:01:49;;;;;;;5.47;2.50;;;;;;;20.45;100.00;101623.53;2080282;28;20940;-63
2023/07/09 00:02:50;;;;;;;4.27;2.53;;;;;;;20.60;100.00;101646.94;2080997;28;20188;-63
2023/07/09 00:03:54;;;;;;;5.40;2.60;;;;;;;20.62;100.00;101654.91;2089227;28;20419;-62
2023/07/09 00:04:54;;;;;;;4.63;2.33;;;;;;;20.33;100.00;101601.22;2088622;28;20192;-61
2023/07/09 00:05:55;;;;;;;5.60;2.30;;;;;;;20.61;100.00;101645.69;2081362;28;20971;-62
2023/07/09 00:07:00;;;;;;;5.60;2.43;;;;;;;20.60;100.00;101649.75;2081539;28;20607;-62
2023/07/09 00:08:00;;;;;;;4.07;2.40;;;;;;;20.62;100.00;101643.66;2081436;28;20196;-61
2023/07/09 00:09:01;;;;;;;3.20;2.27;;;;;;;20.63;100.00;101651.59;2080924;28;20277;-61
2023/07/09 00:10:01;;;;;;;3.80;2.20;;;;;;;20.55;100.00;101656.03;2081137;28;20185;-61
2023/07/09 00:11:02;;;;;;;7.97;2.60;;;;;;;20.50;100.00;101648.25;2081348;28;20180;-61
2023/07/09 00:12:03;;;;;;;5.63;2.20;;;;;;;20.54;100.00;101651.66;2081058;28;20180;-61
2023/07/09 00:13:04;;;;;;;4.23;2.30;;;;;;;20.52;100.00;101653.41;2081667;28;20177;-61
2023/07/09 00:14:05;;;;;;;6.13;2.40;;;;;;;20.51;100.00;101652.59;2081445;28;20200;-61
2023/07/09 00:15:09;;;;;;;4.33;2.30;;;;;;;20.48;100.00;101655.59;2081224;28;20242;-61
2023/07/09 00:16:20;;;;;;;4.50;2.33;;;;;;;20.46;100.00;101653.25;2080707;28;20227;-62
2023/07/09 00:17:23;;;;;;;3.53;2.03;;;;;;;20.46;100.00;101652.50;2080742;28;20193;-61
2023/07/09 00:18:23;;;;;;;7.13;2.33;;;;;;;19.96;100.00;101588.53;2080561;28;20199;-61
2023/07/09 00:19:24;;;;;;;5.23;2.47;;;;;;;20.28;100.00;101636.44;2080225;28;20566;-61
2023/07/09 00:20:24;;;;;;;7.77;2.50;;;;;;;20.34;100.00;101648.63;2080551;28;20556;-61
2023/07/09 00:21:25;;;;;;;11.20;2.97;;;;;;;20.40;100.00;101655.16;2080436;28;20247;-62
2023/07/09 00:22:26;;;;;;;8.90;2.67;;;;;;;20.40;100.00;101654.38;2073760;28;20202;-61
2023/07/09 00:23:27;;;;;;;7.83;2.90;;;;;;;20.41;100.00;101641.88;2081215;28;20177;-61
2023/07/09 00:24:28;;;;;;;8.63;3.03;;;;;;;20.37;100.00;101646.88;2081353;28;20424;-62
2023/07/09 00:25:28;;;;;;;5.87;2.50;;;;;;;20.43;100.00;101644.97;2081267;28;20627;-61
2023/07/09 00:26:30;;;;;;;6.57;2.57;;;;;;;20.46;100.00;101652.50;2081131;28;20431;-62
2023/07/09 00:27:31;;;;;;;4.20;2.30;;;;;;;19.98;100.00;101586.81;2081367;28;20192;-62
2023/07/09 00:28:31;;;;;;;5.43;2.30;;;;;;;20.47;100.00;101652.00;2081080;28;20491;-61
2023/07/09 00:29:31;;;;;;;5.40;2.30;;;;;;;20.47;100.00;101649.19;2080821;28;20234;-61
2023/07/09 00:30:32;;;;;;;3.90;2.30;;;;;;;20.49;100.00;101646.69;2080922;28;20185;-62
2023/07/09 00:31:32;;;;;;;4.80;2.40;;;;;;;20.48;100.00;101647.94;2080697;28;20177;-61
2023/07/09 00:32:43;;;;;;;4.93;2.63;;;;;;;20.44;100.00;101650.16;2081202;28;20173;-61
2023/07/09 00:33:46;;;;;;;7.30;2.30;;;;;;;20.28;100.00;101647.72;2081408;28;20161;-62
2023/07/09 00:34:50;;;;;;;4.50;2.17;;;;;;;20.42;100.00;101658.25;2088819;28;20421;-62
2023/07/09 00:35:50;;;;;;;4.67;2.30;;;;;;;20.44;100.00;101652.97;2088477;28;20658;-62
2023/07/09 00:36:51;;;;;;;4.33;2.70;;;;;;;20.44;100.00;101655.78;2081117;28;20550;-61
2023/07/09 00:37:51;;;;;;;4.17;2.03;;;;;;;20.39;100.00;101656.41;2081377;28;20224;-61
2023/07/09 00:38:52;;;;;;;3.00;1.80;;;;;;;20.36;100.00;101670.66;2084508;28;20669;-61
2023/07/09 00:39:52;;;;;;;5.97;2.50;;;;;;;20.34;100.00;101651.44;2086510;28;20205;-62
2023/07/09 00:40:59;;;;;;;3.87;2.40;;;;;;;20.24;100.00;101658.34;2080964;28;20323;-61
2023/07/09 00:41:59;;;;;;;3.63;2.27;;;;;;;20.12;100.00;101636.78;2088233;28;20192;-62
2023/07/09 00:43:00;;;;;;;4.23;2.07;;;;;;;19.91;100.00;101603.22;2088736;28;20673;-61
2023/07/09 00:44:19;;;;;;;5.07;2.40;;;;;;;20.27;100.00;101653.81;2081180;28;20722;-61
2023/07/09 00:45:25;;;;;;;5.60;2.57;;;;;;;20.27;100.00;101651.00;2080111;28;20216;-61
2023/07/09 00:46:27;;;;;;;4.63;2.33;;;;;;;20.28;100.00;101652.53;2080423;28;20690;-61
2023/07/09 00:47:47;;;;;;;2.97;2.30;;;;;;;20.28;100.00;101661.00;2081306;28;20419;-61
2023/07/09 00:49:04;;;;;;;2.87;2.00;;;;;;;19.88;100.00;101590.09;2080394;28;20979;-61
2023/07/09 00:50:41;;;;;;;7.67;2.63;;;;;;;19.95;100.00;101604.63;2081048;28;20406;-61
2023/07/09 00:51:43;;;;;;;9.57;2.70;;;;;;;20.17;100.00;101635.38;2081141;28;20443;-61
2023/07/09 00:52:55;;;;;;;7.50;2.67;;;;;;;20.32;100.00;101676.44;2080717;28;20196;-62
2023/07/09 00:54:07;;;;;;;4.97;2.27;;;;;;;19.88;100.00;101596.53;2075539;28;20428;-61
2023/07/09 00:55:14;;;;;;;6.00;2.63;;;;;;;20.28;100.00;101661.00;2078739;28;20552;-61
2023/07/09 00:56:19;;;;;;;7.60;3.43;;;;;;;20.00;100.00;101618.03;2075709;28;20424;-61
2023/07/09 00:57:26;;;;;;;3.47;2.17;;;;;;;20.30;100.00;101658.47;2077849;28;20458;-62
2023/07/09 00:58:27;;;;;;;5.47;2.40;;;;;;;20.24;100.00;101649.91;2076402;28;20661;-62
2023/07/09 00:59:31;;;;;;;4.70;2.20;;;;;;;20.27;100.00;101657.38;2076087;28;20455;-61
2023/07/09 01:00:46;;;;;;;4.63;2.20;;;;;;;20.21;100.00;101658.53;2077863;28;20432;-62
2023/07/09 01:01:50;;;;;;;3.97;2.27;;;;;;;20.19;100.00;101655.38;2083981;28;20521;-61
2023/07/09 01:02:51;;;;;;;3.57;2.10;;;;;;;19.91;100.00;101611.69;2088073;28;20481;-61
2023/07/09 01:03:58;;;;;;;6.40;2.30;;;;;;;20.13;100.00;101654.47;2080988;28;20426;-62
2023/07/09 01:05:02;;;;;;;3.60;2.07;;;;;;;19.69;100.00;101595.00;2078978;28;20173;-62
2023/07/09 01:06:05;;;;;;;5.07;2.10;;;;;;;20.12;100.00;101652.91;2073950;28;20507;-61
2023/07/09 01:07:06;;;;;;;3.83;2.10;;;;;;;20.11;100.00;101654.94;2080887;28;20443;-61
2023/07/09 01:08:09;;;;;;;5.57;2.33;;;;;;;20.13;100.00;101652.44;2081113;28;20986;-62
2023/07/09 01:09:10;;;;;;;5.27;2.50;;;;;;;19.75;100.00;101600.78;2080377;28;20462;-61
2023/07/09 01:10:10;;;;;;;3.90;1.93;;;;;;;20.10;100.00;101656.19;2080964;28;20446;-61
2023/07/09 01:11:20;;;;;;;5.50;2.30;;;;;;;20.12;100.00;101664.16;2080323;28;20200;-62
2023/07/09 01:12:23;;;;;;;7.63;2.03;;;;;;;20.10;100.00;101667.44;2067259;28;20277;-63
2023/07/09 01:13:26;;;;;;;3.30;2.03;;;;;;;20.10;100.00;101666.66;2072205;28;20444;-61
2023/07/09 01:14:26;;;;;;;7.77;2.57;;;;;;;19.84;100.00;101626.84;2076648;28;20431;-61
2023/07/09 01:15:27;;;;;;;9.07;2.43;;;;;;;20.07;100.00;101670.41;2080782;28;20475;-61
2023/07/09 01:16:31;;;;;;;9.40;2.70;;;;;;;20.06;100.00;101666.03;2080913;28;20274;-61
2023/07/09 01:17:32;;;;;;;13.07;2.47;;;;;;;19.99;100.00;101647.44;2080912;28;20259;-61
2023/07/09 01:18:32;;;;;;;7.13;2.90;;;;;;;20.10;100.00;101670.25;2080800;28;20925;-61
2023/07/09 01:19:45;;;;;;;7.17;2.87;;;;;;;20.07;100.00;101671.19;2080701;28;20733;-61
2023/07/09 01:20:46;;;;;;;6.43;2.50;;;;;;;19.88;100.00;101649.19;2072884;28;20655;-61
2023/07/09 01:21:46;;;;;;;5.47;2.40;;;;;;;20.04;100.00;101665.72;2080140;28;20531;-62
2023/07/09 01:22:54;;;;;;;10.30;2.70;;;;;;;20.05;100.00;101667.28;2080752;28;20450;-61
2023/07/09 01:23:54;;;;;;;3.43;2.40;;;;;;;20.07;100.00;101661.97;2080148;28;20189;-62
2023/07/09 01:25:01;;;;;;;4.47;2.30;;;;;;;20.03;100.00;101667.75;2080230;28;20455;-61
2023/07/09 01:26:02;;;;;;;4.53;2.10;;;;;;;19.69;100.00;101617.50;2077867;28;20195;-61
2023/07/09 01:27:03;;;;;;;3.97;2.20;;;;;;;19.97;100.00;101666.03;2080878;28;20451;-61
2023/07/09 01:28:03;;;;;;;6.93;2.50;;;;;;;19.95;100.00;101665.75;2080808;28;20546;-61
2023/07/09 01:29:04;;;;;;;3.50;2.33;;;;;;;19.88;100.00;101664.03;2080282;28;20263;-61
2023/07/09 01:30:10;;;;;;;6.27;2.37;;;;;;;19.90;100.00;101664.34;2080687;28;20566;-61
2023/07/09 01:31:12;;;;;;;4.90;2.30;;;;;;;19.29;100.00;101565.53;2080829;28;20201;-61
2023/07/09 01:32:14;;;;;;;5.33;2.40;;;;;;;19.85;100.00;101653.72;2080642;28;20473;-62
2023/07/09 01:33:14;;;;;;;7.00;2.60;;;;;;;19.84;100.00;101646.53;2080278;28;20681;-62
2023/07/09 01:34:15;;;;;;;4.63;2.33;;;;;;;19.94;100.00;101656.50;2080903;28;20516;-61
2023/07/09 01:35:19;;;;;;;3.63;2.30;;;;;;;19.98;100.00;101662.78;2080505;28;20196;-62
2023/07/09 01:36:24;;;;;;;6.97;2.63;;;;;;;19.90;100.00;101653.09;2080731;28;20201;-61
2023/07/09 01:37:27;;;;;;;4.63;2.20;;;;;;;19.87;100.00;101642.00;2080734;28;20431;-61
2023/07/09 01:38:30;;;;;;;5.43;2.13;;;;;;;19.93;100.00;101666.22;2080748;28;20447;-61
2023/07/09 01:39:31;;;;;;;3.73;2.60;;;;;;;19.94;100.00;101672.59;2080118;28;20496;-62
2023/07/09 01:40:31;;;;;;;5.03;2.40;;;;;;;19.95;100.00;101662.94;2080734;28;20477;-61
2023/07/09 01:41:34;;;;;;;2.93;2.20;;;;;;;19.95;100.00;101665.75;2080625;28;20173;-62
2023/07/09 01:42:35;;;;;;;3.23;2.50;;;;;;;19.63;100.00;101613.75;2080492;28;20182;-61
2023/07/09 01:43:36;;;;;;;6.13;2.13;;;;;;;19.93;100.00;101657.78;2080828;28;20447;-62
2023/07/09 01:44:38;;;;;;;5.23;2.50;;;;;;;20.01;100.00;101664.63;2080549;28;21189;-62
2023/07/09 01:45:38;;;;;;;4.13;2.40;;;;;;;20.01;100.00;101664.63;2080576;28;20467;-62
2023/07/09 01:46:39;;;;;;;3.43;2.23;;;;;;;19.54;100.00;101591.28;2080665;28;20451;-61
2023/07/09 01:47:39;;;;;;;4.30;2.27;;;;;;;20.02;100.00;101673.84;2080864;28;20191;-62
2023/07/09 01:48:44;;;;;;;4.67;2.30;;;;;;;19.68;100.00;101621.56;2080113;28;20696;-62
2023/07/09 01:49:48;;;;;;;3.97;2.23;;;;;;;20.04;100.00;101674.16;2080592;28;20177;-62
2023/07/09 01:50:49;;;;;;;3.80;2.27;;;;;;;20.05;100.00;101672.91;2080513;28;20820;-62
2023/07/09 01:51:50;;;;;;;5.63;2.20;;;;;;;20.02;100.00;101673.84;2080449;28;20502;-61
2023/07/09 01:52:51;;;;;;;4.67;2.70;;;;;;;20.05;100.00;101670.88;2080794;28;20481;-61
2023/07/09 01:53:53;;;;;;;5.83;2.50;;;;;;;19.59;100.00;101599.06;2080636;28;20444;-61
2023/07/09 01:54:54;;;;;;;5.27;2.30;;;;;;;20.04;100.00;101668.53;2080749;28;20482;-61
2023/07/09 01:55:55;;;;;;;4.97;2.57;;;;;;;20.02;100.00;101669.03;2080738;28;20435;-62
2023/07/09 01:57:22;;;;;;;3.87;2.30;;;;;;;19.93;100.00;101656.97;2080511;28;20201;-61
2023/07/09 01:58:24;;;;;;;4.63;2.20;;;;;;;19.97;100.00;101664.03;2080608;28;20506;-62
2023/07/09 01:59:26;;;;;;;2.73;2.10;;;;;;;19.96;100.00;101664.50;2079469;28;20450;-61
2023/07/09 02:00:27;;;;;;;5.37;2.30;;;;;;;19.51;100.00;101606.28;2080051;28;20431;-62
2023/07/09 02:01:29;;;;;;;3.27;2.20;;;;;;;19.62;100.00;101617.81;2080599;28;20533;-61
2023/07/09 02:02:29;;;;;;;3.73;2.10;;;;;;;19.87;100.00;101665.28;2080154;28;20258;-62
2023/07/09 02:03:30;;;;;;;4.43;2.10;;;;;;;19.48;100.00;101604.41;2080620;28;20428;-62
2023/07/09 02:04:31;;;;;;;5.80;2.30;;;;;;;19.91;100.00;101667.94;2087057;28;20215;-62
2023/07/09 02:05:33;;;;;;;3.50;2.30;;;;;;;19.91;100.00;101665.88;2080127;28;20287;-62
2023/07/09 02:06:33;;;;;;;4.23;2.30;;;;;;;19.88;100.00;101669.66;2080837;28;20423;-61
2023/07/09 02:07:33;;;;;;;5.33;2.40;;;;;;;19.14;100.00;101570.97;2080806;28;20953;-62
2023/07/09 02:08:34;;;;;;;4.70;2.30;;;;;;;19.69;100.00;101653.25;2080588;28;20670;-61
2023/07/09 02:09:35;;;;;;;6.10;2.50;;;;;;;19.80;100.00;101670.47;2080077;28;20684;-61
2023/07/09 02:10:35;;;;;;;4.70;2.47;;;;;;;19.84;100.00;101676.69;2080733;28;20193;-61
2023/07/09 02:11:36;;;;;;;4.47;2.33;;;;;;;19.78;100.00;101682.19;2080487;28;20205;-62
2023/07/09 02:12:36;;;;;;;3.37;2.30;;;;;;;19.76;100.00;101679.03;2080283;28;20359;-61
2023/07/09 02:13:36;;;;;;;5.40;2.50;;;;;;;19.79;100.00;101677.31;2080492;28;20265;-62
2023/07/09 02:14:38;;;;;;;5.57;2.30;;;;;;;19.39;100.00;101623.31;2080206;28;20208;-61
2023/07/09 02:15:43;;;;;;;8.13;2.57;;;;;;;19.77;100.00;101680.63;2080803;28;20189;-62
2023/07/09 02:16:43;;;;;;;3.87;2.13;;;;;;;19.78;100.00;101687.00;2080657;28;20444;-61
2023/07/09 02:17:44;;;;;;;4.47;2.57;;;;;;;19.67;100.00;101689.53;2080719;28;20522;-61
2023/07/09 02:18:44;;;;;;;4.33;2.37;;;;;;;19.59;100.00;101691.09;2079895;28;20279;-62
2023/07/09 02:19:45;;;;;;;4.67;2.30;;;;;;;19.58;100.00;101697.94;2080613;28;20277;-61
2023/07/09 02:20:46;;;;;;;9.43;2.70;;;;;;;19.05;100.00;101618.75;2080446;28;20180;-62
2023/07/09 02:21:47;;;;;;;4.77;2.40;;;;;;;19.58;100.00;101690.31;2080229;28;20177;-61
2023/07/09 02:22:50;;;;;;;4.23;2.37;;;;;;;19.59;100.00;101700.31;2080254;28;20431;-61
2023/07/09 02:23:50;;;;;;;4.53;2.40;;;;;;;19.61;100.00;101703.44;2080872;28;20177;-62
2023/07/09 02:24:52;;;;;;;4.70;2.40;;;;;;;19.64;100.00;101701.69;2072643;28;20497;-61
2023/07/09 02:25:53;;;;;;;4.13;2.47;;;;;;;19.64;100.00;101699.69;2079421;28;20215;-62
2023/07/09 02:26:55;;;;;;;2.87;2.10;;;;;;;19.68;100.00;101700.31;2080330;28;20443;-61
2023/07/09 02:27:55;;;;;;;6.23;2.50;;;;;;;19.69;100.00;101699.06;2080681;28;20286;-62
2023/07/09 02:28:55;;;;;;;4.17;2.20;;;;;;;19.71;100.00;101707.78;2079980;28;20952;-61
2023/07/09 02:29:56;;;;;;;4.40;2.40;;;;;;;19.72;100.00;101708.59;2088074;28;20742;-61
2023/07/09 02:30:56;;;;;;;6.17;2.40;;;;;;;19.74;100.00;101706.06;2088278;28;20700;-61
2023/07/09 02:31:59;;;;;;;4.00;2.30;;;;;;;19.37;100.00;101649.06;2080366;28;20184;-62
2023/07/09 02:32:59;;;;;;;4.67;2.43;;;;;;;19.25;100.00;101626.75;2080596;28;20679;-62
2023/07/09 02:34:00;;;;;;;5.93;2.47;;;;;;;19.76;100.00;101709.22;2072721;28;20805;-62
2023/07/09 02:35:00;;;;;;;3.80;2.53;;;;;;;19.74;100.00;101706.84;2079032;28;20407;-62
2023/07/09 02:36:01;;;;;;;7.43;2.57;;;;;;;19.73;100.00;101708.13;2077087;28;20224;-61
2023/07/09 02:37:01;;;;;;;4.83;2.37;;;;;;;19.73;100.00;101712.94;2080556;28;20189;-62
2023/07/09 02:38:02;;;;;;;4.57;2.10;;;;;;;19.73;100.00;101710.13;2077563;28;20268;-61
2023/07/09 02:39:03;;;;;;;6.07;2.50;;;;;;;19.39;100.00;101662.66;2073752;28;20185;-62
2023/07/09 02:40:04;;;;;;;5.43;3.17;;;;;;;19.72;100.00;101712.19;2079609;28;20947;-61
2023/07/09 02:41:05;;;;;;;5.00;2.50;;;;;;;19.75;100.00;101710.47;2080566;28;20177;-62
2023/07/09 02:42:05;;;;;;;6.00;2.47;;;;;;;19.75;100.00;101722.47;2080265;28;20601;-61
2023/07/09 02:43:05;;;;;;;9.47;3.13;;;;;;;19.29;100.00;101644.25;2080490;28;20192;-61
2023/07/09 02:44:07;;;;;;;8.37;3.20;;;;;;;19.75;100.00;101721.72;2080250;28;20326;-62
2023/07/09 02:45:10;;;;;;;9.97;3.17;;;;;;;19.76;100.00;101717.66;2081299;28;20250;-61
2023/07/09 02:46:10;;;;;;;13.73;3.00;;;;;;;19.79;100.00;101716.69;2081920;28;20439;-61
2023/07/09 02:47:11;;;;;;;6.53;2.80;;;;;;;19.78;100.00;101718.75;2081937;28;20937;-61
2023/07/09 02:48:12;;;;;;;8.53;3.10;;;;;;;19.79;100.00;101716.69;2081864;28;20641;-61
2023/07/09 02:49:14;;;;;;;11.63;4.10;;;;;;;19.40;100.00;101655.78;2081528;28;20428;-61
2023/07/09 02:50:14;;;;;;;7.40;2.70;;;;;;;19.74;100.00;101722.94;2082339;28;21100;-61
2023/07/09 02:51:14;;;;;;;15.70;3.60;;;;;;;19.51;100.00;101684.22;2081853;28;20846;-61
2023/07/09 02:52:15;;;;;;;11.37;3.33;;;;;;;19.73;100.00;101719.38;2081939;28;20197;-62
2023/07/09 02:53:15;;;;;;;7.83;3.00;;;;;;;19.75;100.00;101722.47;2081961;28;20268;-61
2023/07/09 02:54:16;;;;;;;10.80;3.67;;;;;;;19.72;100.00;101726.25;2081861;28;20789;-61
2023/07/09 02:55:16;;;;;;;11.77;3.20;;;;;;;19.65;100.00;101726.53;2081953;28;20271;-62
2023/07/09 02:56:17;;;;;;;9.80;3.07;;;;;;;19.23;100.00;101668.56;2082099;28;20183;-61
2023/07/09 02:57:17;;;;;;;9.37;3.10;;;;;;;19.62;100.00;101729.50;2081841;28;20180;-62
2023/07/09 02:58:17;;;;;;;8.53;2.90;;;;;;;19.56;100.00;101723.75;2082151;28;20281;-61
2023/07/09 02:59:19;;;;;;;6.10;2.67;;;;;;;19.50;100.00;101708.72;2081589;28;20188;-62
2023/07/09 03:00:20;;;;;;;9.90;3.40;;;;;;;19.58;100.00;101734.50;2081902;28;20188;-61
2023/07/09 03:01:27;;;;;;;6.77;3.07;;;;;;;19.59;100.00;101725.59;2081825;28;20443;-64
2023/07/09 03:02:27;;;;;;;8.40;2.93;;;;;;;19.62;100.00;101730.31;2081545;28;20214;-64
2023/07/09 03:03:28;;;;;;;8.97;2.70;;;;;;;19.65;100.00;101734.22;2081955;28;20477;-64
2023/07/09 03:04:31;;;;;;;8.13;2.70;;;;;;;19.67;100.00;101726.88;2081967;28;20279;-63
2023/07/09 03:05:31;;;;;;;7.80;3.00;;;;;;;19.65;100.00;101720.16;2079129;28;20479;-62
2023/07/09 03:06:33;;;;;;;9.57;2.67;;;;;;;19.71;100.00;101746.41;2075266;28;20424;-61
2023/07/09 03:07:33;;;;;;;8.43;2.43;;;;;;;19.63;100.00;101737.50;2081920;28;20191;-62
2023/07/09 03:08:33;;;;;;;4.37;2.27;;;;;;;19.62;100.00;101735.13;2081955;28;20418;-61
2023/07/09 03:09:34;;;;;;;5.27;2.70;;;;;;;19.20;100.00;101669.47;2081351;28;20283;-61
2023/07/09 03:10:34;;;;;;;7.63;2.93;;;;;;;19.62;100.00;101727.50;2081975;28;20193;-61
2023/07/09 03:11:35;;;;;;;5.47;2.73;;;;;;;19.54;100.00;101720.59;2082006;28;20208;-61
2023/07/09 03:12:35;;;;;;;9.20;3.13;;;;;;;19.14;100.00;101674.16;2081557;28;20185;-61
2023/07/09 03:13:36;;;;;;;8.80;2.90;;;;;;;19.19;100.00;101679.16;2081821;28;20246;-62
2023/07/09 03:14:36;;;;;;;8.93;2.60;;;;;;;19.55;100.00;101735.47;2081657;28;20208;-61
2023/07/09 03:15:36;;;;;;;7.93;2.60;;;;;;;19.54;100.00;101740.28;2081641;28;20203;-62
2023/07/09 03:16:37;;;;;;;11.07;3.63;;;;;;;19.49;100.00;101720.47;2089518;28;20180;-61
2023/07/09 03:17:37;;;;;;;9.37;2.97;;;;;;;19.52;100.00;101734.34;2081379;28;20197;-61
2023/07/09 03:18:38;;;;;;;6.57;2.90;;;;;;;18.37;100.00;101551.06;2081580;28;20694;-61
2023/07/09 03:19:39;;;;;;;5.73;2.80;;;;;;;19.47;100.00;101725.75;2081717;28;20227;-64
2023/07/09 03:20:39;;;;;;;4.67;2.47;;;;;;;19.21;100.00;101679.47;2081684;28;20458;-64
2023/07/09 03:21:40;;;;;;;3.77;2.10;;;;;;;19.59;100.00;101745.28;2081701;28;20268;-64
2023/07/09 03:22:40;;;;;;;5.63;2.30;;;;;;;19.59;100.00;101736.84;2081388;28;20181;-64
2023/07/09 03:23:41;;;;;;;6.27;2.40;;;;;;;19.57;100.00;101739.38;2081910;28;20626;-64
2023/07/09 03:24:42;;;;;;;8.73;2.80;;;;;;;18.88;100.00;101623.06;2081597;28;20669;-64
2023/07/09 03:25:44;;;;;;;6.17;2.30;;;;;;;19.61;100.00;101751.25;2082052;28;20471;-64
2023/07/09 03:26:46;;;;;;;4.83;2.33;;;;;;;19.58;100.00;101742.94;2081776;28;20292;-64
2023/07/09 03:27:49;;;;;;;5.37;2.13;;;;;;;19.39;100.00;101728.09;2081815;28;20453;-64
2023/07/09 03:28:50;;;;;;;4.00;2.00;;;;;;;19.57;100.00;101742.19;2081160;28;20451;-64
2023/07/09 03:29:50;;;;;;;7.30;2.47;;;;;;;19.58;100.00;101749.34;2081647;28;20439;-64
2023/07/09 03:30:54;;;;;;;4.63;2.50;;;;;;;19.58;100.00;101748.56;2081552;28;20242;-64
2023/07/09 03:31:54;;;;;;;4.03;1.97;;;;;;;19.51;100.00;101737.63;2081588;28;20192;-64
2023/07/09 03:32:55;;;;;;;5.40;2.50;;;;;;;19.51;100.00;101743.25;2081536;28;20455;-64
2023/07/09 03:33:55;;;;;;;4.73;2.60;;;;;;;19.49;100.00;101749.34;2081042;28;20650;-64
2023/07/09 03:34:56;;;;;;;6.00;2.57;;;;;;;19.47;100.00;101743.41;2073744;28;20181;-64
2023/07/09 03:35:56;;;;;;;6.73;2.50;;;;;;;19.45;100.00;101743.06;2081265;28;20566;-64
2023/07/09 03:36:56;;;;;;;5.57;2.63;;;;;;;19.42;100.00;101746.03;2081521;28;20553;-64
2023/07/09 03:37:57;;;;;;;5.60;2.43;;;;;;;18.68;100.00;101639.56;2080924;28;20207;-64
2023/07/09 03:38:57;;;;;;;6.43;2.47;;;;;;;19.35;100.00;101749.94;2080472;28;20199;-64
2023/07/09 03:39:58;;;;;;;4.63;2.60;;;;;;;19.35;100.00;101747.13;2081630;28;20282;-63
2023/07/09 03:40:58;;;;;;;6.63;2.77;;;;;;;18.95;100.00;101697.84;2075873;28;20197;-64
2023/07/09 03:41:59;;;;;;;7.33;2.60;;;;;;;19.31;100.00;101749.31;2081343;28;20191;-64
2023/07/09 03:42:59;;;;;;;5.97;2.30;;;;;;;18.85;100.00;101680.19;2081853;28;20188;-64
2023/07/09 03:44:00;;;;;;;6.93;2.43;;;;;;;19.30;100.00;101749.78;2081346;28;20323;-64
2023/07/09 03:45:00;;;;;;;3.80;2.40;;;;;;;19.27;100.00;101765.56;2081682;28;20195;-64
2023/07/09 03:46:01;;;;;;;8.70;2.93;;;;;;;19.23;100.00;101750.06;2081377;28;20220;-64
2023/07/09 03:47:01;;;;;;;9.00;2.40;;;;;;;18.90;100.00;101704.06;2081731;28;20197;-64
2023/07/09 03:48:02;;;;;;;5.50;2.80;;;;;;;19.20;100.00;101754.59;2081594;28;20733;-64
2023/07/09 03:49:03;;;;;;;5.10;2.33;;;;;;;19.09;100.00;101730.97;2078724;28;20725;-64
2023/07/09 03:50:06;;;;;;;7.53;2.77;;;;;;;19.26;100.00;101749.16;2074470;28;20779;-65
2023/07/09 03:51:07;;;;;;;7.73;2.93;;;;;;;19.20;100.00;101753.78;2081299;28;20712;-64
2023/07/09 03:52:07;;;;;;;10.63;3.20;;;;;;;19.22;100.00;101763.34;2081427;28;20923;-64
2023/07/09 03:53:08;;;;;;;8.20;3.27;;;;;;;19.23;100.00;101750.06;2081489;28;20185;-64
2023/07/09 03:54:08;;;;;;;7.33;2.80;;;;;;;19.23;100.00;101750.84;2081364;28;20242;-64
2023/07/09 03:55:09;;;;;;;4.57;2.30;;;;;;;19.24;100.00;101758.03;2081491;28;20204;-64
2023/07/09 03:56:09;;;;;;;5.07;2.70;;;;;;;19.24;100.00;101755.22;2081084;28;20193;-64
2023/07/09 03:57:10;;;;;;;8.07;3.00;;;;;;;19.23;100.00;101759.28;2081380;28;20193;-64
2023/07/09 03:58:10;;;;;;;5.83;2.53;;;;;;;19.19;100.00;101747.38;2081445;28;20691;-64
2023/07/09 03:59:11;;;;;;;6.43;2.80;;;;;;;19.23;100.00;101759.28;2080804;28;20593;-64
2023/07/09 04:00:12;;;;;;;4.60;2.23;;;;;;;19.24;100.00;101758.03;2081701;28;20618;-64
2023/07/09 04:01:12;;;;;;;6.30;2.50;;;;;;;19.25;100.00;101756.78;2073641;28;20192;-64
2023/07/09 04:02:12;;;;;;;8.00;2.63;;;;;;;19.28;100.00;101755.88;2079701;28;20510;-64
2023/07/09 04:03:13;;;;;;;4.23;2.50;;;;;;;19.02;100.00;101717.19;2076008;28;20192;-64
2023/07/09 04:04:13;;;;;;;3.87;2.47;;;;;;;19.31;100.00;101759.78;2077712;28;20207;-64
2023/07/09 04:05:14;;;;;;;4.17;2.10;;;;;;;19.34;100.00;101758.84;2078052;28;20201;-64
2023/07/09 04:06:15;;;;;;;8.30;3.00;;;;;;;18.82;100.00;101681.09;2073997;28;20193;-64
2023/07/09 04:07:15;;;;;;;4.93;2.90;;;;;;;19.37;100.00;101767.13;2081589;28;20180;-64
2023/07/09 04:08:16;;;;;;;4.93;2.67;;;;;;;19.37;100.00;101763.53;2081689;28;20263;-64
2023/07/09 04:09:16;;;;;;;8.57;2.93;;;;;;;19.40;100.00;101759.81;2072745;28;20716;-64
2023/07/09 04:10:17;;;;;;;6.97;2.50;;;;;;;19.40;100.00;101752.13;2080539;28;20197;-64
2023/07/09 04:11:18;;;;;;;6.20;2.90;;;;;;;19.36;100.00;101747.91;2081415;28;20189;-64
2023/07/09 04:12:18;;;;;;;7.23;2.97;;;;;;;19.32;100.00;101750.09;2081129;28;20220;-64
2023/07/09 04:13:18;;;;;;;8.77;3.00;;;;;;;19.42;100.00;101763.72;2081175;28;20697;-64
2023/07/09 04:14:19;;;;;;;7.97;2.80;;;;;;;19.43;100.00;101765.28;2078849;28;20181;-64
2023/07/09 04:15:19;;;;;;;5.53;2.43;;;;;;;19.46;100.00;101761.53;2081235;28;20256;-64
2023/07/09 04:16:20;;;;;;;4.67;2.87;;;;;;;18.98;100.00;101688.50;2081339;28;20643;-64
2023/07/09 04:17:22;;;;;;;7.00;2.70;;;;;;;19.52;100.00;101767.31;2081636;28;20176;-62
2023/07/09 04:18:23;;;;;;;6.30;2.83;;;;;;;19.55;100.00;101772.00;2081188;28;20319;-62
2023/07/09 04:19:24;;;;;;;11.10;3.40;;;;;;;19.56;100.00;101757.50;2080903;28;20455;-62
2023/07/09 04:20:25;;;;;;;8.77;2.83;;;;;;;19.60;100.00;101766.53;2081090;28;20632;-61
2023/07/09 04:21:25;;;;;;;7.70;3.00;;;;;;;19.62;100.00;101764.06;2080340;28;20451;-61
2023/07/09 04:22:26;;;;;;;9.53;3.23;;;;;;;19.65;100.00;101765.16;2080413;28;20264;-62
2023/07/09 04:23:26;;;;;;;7.30;3.03;;;;;;;19.65;100.00;101763.09;2081388;28;20184;-61
2023/07/09 04:24:27;;;;;;;9.57;2.73;;;;;;;19.68;100.00;101756.56;2081311;28;20181;-62
2023/07/09 04:25:27;;;;;;;6.33;2.63;;;;;;;19.61;100.00;101762.50;2081419;28;20213;-62
2023/07/09 04:26:28;;;;;;;4.90;2.30;;;;;;;19.31;100.00;101703.56;2081330;28;20197;-62
2023/07/09 04:27:30;;;;;;;4.10;2.40;;;;;;;19.75;100.00;101766.72;2081148;28;20209;-61
2023/07/09 04:28:31;;;;;;;4.53;2.37;;;;;;;19.38;100.00;101714.50;2081358;28;20655;-61
2023/07/09 04:29:35;;;;;;;4.77;2.40;;;;;;;19.60;100.00;101732.03;2080799;28;20428;-61
2023/07/09 04:30:36;;;;;;;4.97;2.30;;;;;;;19.89;100.00;101771.69;2081245;28;20215;-62
2023/07/09 04:31:37;;;;;;;4.93;2.10;;;;;;;19.93;100.00;101766.72;2081295;28;20498;-61
2023/07/09 04:32:37;;;;;;;4.50;2.07;;;;;;;19.94;100.00;101771.06;2080952;28;20184;-62
2023/07/09 04:33:38;;;;;;;4.47;2.40;;;;;;;19.96;100.00;101766.53;2081063;28;20422;-62
2023/07/09 04:34:39;;;;;;;4.33;2.40;;;;;;;20.03;100.00;101766.25;2081316;28;20205;-62
2023/07/09 04:35:39;;;;;;;6.00;2.40;;;;;;;20.09;100.00;101761.56;2081457;28;20196;-62
2023/07/09 04:36:39;;;;;;;4.10;2.47;;;;;;;20.16;100.00;101766.09;2081108;28;20181;-61
2023/07/09 04:37:40;;;;;;;6.83;2.73;;;;;;;19.74;100.00;101711.69;2081485;28;20271;-61
2023/07/09 04:38:41;;;;;;;3.57;2.30;;;;;;;20.24;100.00;101767.34;2080703;28;20197;-62
2023/07/09 04:39:41;;;;;;;5.33;2.43;;;;;;;20.29;100.00;101761.88;2081167;28;20569;-61
2023/07/09 04:40:41;;;;;;;3.77;2.53;;;;;;;19.77;100.00;101675.00;2080968;28;20332;-62
2023/07/09 04:41:42;;;;;;;3.50;2.70;;;;;;;20.29;100.00;101742.16;2080882;28;20239;-63
2023/07/09 04:42:43;;;;;;;4.00;2.67;;;;;;;20.48;100.00;101773.88;2080783;28;20180;-64
2023/07/09 04:43:43;;;;;;;4.27;2.40;;;;;;;19.92;100.00;101675.91;2081303;28;20173;-64
2023/07/09 04:44:45;;;;;;;3.67;2.57;;;;;;;20.56;100.00;101764.59;2081021;28;20242;-64